Time;durP1;ratioP1;P1;durP2;ratioP2;P2;SDS_P1;SDS_P2;PMS_P1;PMS_P2;Temp;Humidity;BMP_temperature;BMP_pressure;BME280_temperature;BME280_humidity;BME280_pressure;Samples;Min_cycle;Max_cycle;Signal;HPM_P1;HPM_P2
2024/01/08 01:56:50;;;;;;;9.20;5.90;;;;;;;;;;6200737;23;20027;-85
2024/01/08 01:59:17;;;;;;;9.67;5.93;;;;;;;;;;6149822;23;20389;-85
2024/01/08 02:01:43;;;;;;;8.50;5.97;;;;;;;;;;6145923;23;20020;-85
2024/01/08 02:04:09;;;;;;;11.93;6.93;;;;;;;;;;6149676;23;20347;-85
2024/01/08 02:06:36;;;;;;;9.47;6.13;;;;;;;;;;6145695;23;20017;-85
2024/01/08 02:09:02;;;;;;;11.73;6.30;;;;;;;;;;6147646;23;20013;-86
2024/01/08 02:11:28;;;;;;;9.27;6.97;;;;;;;;;;6147404;23;20348;-85
2024/01/08 02:13:54;;;;;;;9.67;6.27;;;;;;;;;;6151664;23;20027;-85
2024/01/08 02:16:20;;;;;;;11.57;6.47;;;;;;;;;;6151899;23;20013;-85
2024/01/08 02:18:46;;;;;;;9.43;6.77;;;;;;;;;;6168830;23;20437;-85
2024/01/08 02:21:12;;;;;;;11.00;7.03;;;;;;;;;;6155875;23;20012;-85
2024/01/08 02:23:38;;;;;;;8.73;6.90;;;;;;;;;;6151692;23;20435;-85
2024/01/08 02:26:04;;;;;;;10.07;7.33;;;;;;;;;;6155107;23;20024;-85
2024/01/08 02:28:30;;;;;;;9.97;6.67;;;;;;;;;;6152532;23;20012;-85
2024/01/08 02:30:56;;;;;;;9.73;7.03;;;;;;;;;;6178431;23;20103;-85
2024/01/08 02:33:22;;;;;;;11.43;7.17;;;;;;;;;;6155226;23;20597;-85
2024/01/08 02:35:49;;;;;;;11.73;7.47;;;;;;;;;;6151355;23;20016;-85
2024/01/08 02:38:15;;;;;;;9.73;6.73;;;;;;;;;;6157039;23;20031;-85
2024/01/08 02:40:44;;;;;;;10.27;6.97;;;;;;;;;;6152832;23;20023;-85
2024/01/08 02:43:10;;;;;;;9.40;7.23;;;;;;;;;;6205385;23;20066;-85
2024/01/08 02:45:36;;;;;;;8.57;6.83;;;;;;;;;;6150915;23;20020;-85
2024/01/08 02:48:02;;;;;;;9.17;6.73;;;;;;;;;;6156544;23;20019;-85
2024/01/08 02:50:28;;;;;;;9.63;6.87;;;;;;;;;;6153237;23;20399;-85
2024/01/08 02:52:54;;;;;;;11.20;7.53;;;;;;;;;;6179514;23;20047;-85
2024/01/08 02:55:20;;;;;;;12.33;7.20;;;;;;;;;;6153219;23;20356;-85
2024/01/08 02:57:46;;;;;;;10.70;7.33;;;;;;;;;;6178602;23;20271;-85
2024/01/08 03:00:12;;;;;;;10.40;7.17;;;;;;;;;;6154362;23;20019;-85
2024/01/08 03:02:39;;;;;;;9.37;6.90;;;;;;;;;;6152615;23;20016;-85
2024/01/08 03:05:05;;;;;;;9.70;6.90;;;;;;;;;;6156472;23;20066;-85
2024/01/08 03:07:31;;;;;;;10.73;7.27;;;;;;;;;;6154317;23;20373;-85
2024/01/08 03:09:58;;;;;;;10.40;6.77;;;;;;;;;;6181878;23;20023;-85
2024/01/08 03:12:24;;;;;;;11.93;7.57;;;;;;;;;;6156657;23;20019;-85
2024/01/08 03:14:50;;;;;;;10.43;7.70;;;;;;;;;;6154200;23;20449;-85
2024/01/08 03:17:16;;;;;;;11.47;7.03;;;;;;;;;;6157398;23;20055;-85
2024/01/08 03:19:42;;;;;;;12.60;7.07;;;;;;;;;;6154219;23;20027;-85
2024/01/08 03:22:08;;;;;;;13.57;7.40;;;;;;;;;;6183359;23;20016;-85
2024/01/08 03:24:36;;;;;;;10.07;7.10;;;;;;;;;;6180396;23;20329;-85
2024/01/08 03:27:02;;;;;;;10.37;7.13;;;;;;;;;;6181834;23;20020;-85
2024/01/08 03:29:28;;;;;;;9.73;6.70;;;;;;;;;;6204334;23;20259;-85
2024/01/08 03:31:54;;;;;;;7.67;5.87;;;;;;;;;;6156244;23;20055;-85
2024/01/08 03:34:20;;;;;;;9.87;5.90;;;;;;;;;;6157527;23;20012;-85
2024/01/08 03:36:49;;;;;;;7.73;5.43;;;;;;;;;;6178452;23;20016;-85
2024/01/08 03:39:15;;;;;;;9.50;5.90;;;;;;;;;;6181225;23;20028;-85
2024/01/08 03:41:41;;;;;;;8.85;5.95;;;;;;;;;;6179664;23;20319;-85
2024/01/08 03:44:08;;;;;;;6.67;4.97;;;;;;;;;;6157333;23;20012;-84
2024/01/08 03:46:34;;;;;;;8.23;5.43;;;;;;;;;;6202921;23;20016;-85
2024/01/08 03:49:00;;;;;;;8.20;5.47;;;;;;;;;;6157728;23;20020;-85
2024/01/08 03:51:27;;;;;;;10.00;5.70;;;;;;;;;;6158460;23;20018;-85
2024/01/08 03:53:53;;;;;;;7.67;5.87;;;;;;;;;;6182604;23;20020;-85
2024/01/08 03:56:19;;;;;;;8.98;5.90;;;;;;;;;;6156904;23;20020;-85
2024/01/08 03:58:45;;;;;;;6.72;5.47;;;;;;;;;;6155794;23;20059;-85
2024/01/08 04:01:14;;;;;;;10.53;5.83;;;;;;;;;;6156336;23;20043;-85
2024/01/08 04:03:40;;;;;;;6.72;4.93;;;;;;;;;;6155757;23;20012;-85
2024/01/08 04:06:06;;;;;;;5.95;5.18;;;;;;;;;;6180300;23;20340;-85
2024/01/08 04:08:32;;;;;;;9.87;5.70;;;;;;;;;;6153299;23;20402;-86
2024/01/08 04:10:58;;;;;;;8.03;5.17;;;;;;;;;;6156620;23;20094;-85
2024/01/08 04:13:24;;;;;;;7.53;5.55;;;;;;;;;;6157906;23;20016;-85
2024/01/08 04:15:50;;;;;;;6.07;4.63;;;;;;;;;;6155586;23;20440;-85
2024/01/08 04:18:16;;;;;;;9.73;5.43;;;;;;;;;;6156566;23;20393;-85
2024/01/08 04:20:42;;;;;;;6.10;4.73;;;;;;;;;;6154667;23;20020;-85
2024/01/08 04:23:08;;;;;;;8.17;5.53;;;;;;;;;;6157328;23;20023;-85
2024/01/08 04:25:34;;;;;;;6.90;5.10;;;;;;;;;;6178605;23;20053;-85
2024/01/08 04:28:00;;;;;;;8.90;5.27;;;;;;;;;;6156636;23;20012;-85
2024/01/08 04:30:26;;;;;;;8.30;5.30;;;;;;;;;;6156077;23;20024;-85
2024/01/08 04:32:53;;;;;;;6.87;4.83;;;;;;;;;;6156851;23;20012;-85
2024/01/08 04:35:19;;;;;;;6.20;4.90;;;;;;;;;;6205157;23;20059;-85
2024/01/08 04:37:45;;;;;;;6.80;4.77;;;;;;;;;;6153424;23;20024;-85
2024/01/08 04:40:11;;;;;;;5.83;4.60;;;;;;;;;;6181477;23;20103;-85
2024/01/08 04:42:37;;;;;;;7.97;5.30;;;;;;;;;;6153349;23;20305;-85
2024/01/08 04:45:03;;;;;;;6.97;4.60;;;;;;;;;;6158646;23;20508;-85
2024/01/08 04:47:29;;;;;;;5.73;4.33;;;;;;;;;;6153428;23;20012;-85
2024/01/08 04:49:55;;;;;;;6.13;4.60;;;;;;;;;;6180705;23;20530;-85
2024/01/08 04:52:21;;;;;;;6.30;4.40;;;;;;;;;;6202420;23;20016;-85
2024/01/08 04:54:49;;;;;;;6.37;4.27;;;;;;;;;;6179112;23;20460;-86
2024/01/08 04:57:15;;;;;;;5.80;4.30;;;;;;;;;;6156816;23;20559;-85
2024/01/08 04:59:41;;;;;;;5.83;4.00;;;;;;;;;;6177739;23;20109;-85
2024/01/08 05:02:08;;;;;;;5.35;4.10;;;;;;;;;;6155272;23;20020;-85
2024/01/08 05:04:34;;;;;;;5.83;3.67;;;;;;;;;;6153456;23;20012;-85
2024/01/08 05:07:00;;;;;;;5.23;3.73;;;;;;;;;;6180334;23;20067;-85
2024/01/08 05:09:26;;;;;;;5.17;4.10;;;;;;;;;;6156597;23;20031;-85
2024/01/08 05:11:52;;;;;;;5.20;3.67;;;;;;;;;;6156409;23;20016;-85
2024/01/08 05:14:18;;;;;;;6.97;4.13;;;;;;;;;;6154950;23;20103;-85
2024/01/08 05:16:44;;;;;;;5.80;4.43;;;;;;;;;;6154097;23;20024;-85
2024/01/08 05:19:10;;;;;;;8.30;5.00;;;;;;;;;;6181494;23;20024;-85
2024/01/08 05:21:36;;;;;;;7.03;4.70;;;;;;;;;;6153281;23;20012;-85
2024/01/08 05:24:02;;;;;;;8.60;5.07;;;;;;;;;;6182238;23;20430;-85
2024/01/08 05:26:28;;;;;;;6.93;4.80;;;;;;;;;;6153364;23;20440;-85
2024/01/08 05:28:54;;;;;;;7.10;4.87;;;;;;;;;;6156444;23;20042;-85
2024/01/08 05:31:22;;;;;;;8.53;5.37;;;;;;;;;;6155112;23;20027;-85
2024/01/08 05:33:49;;;;;;;6.85;4.90;;;;;;;;;;6179220;23;20135;-85
2024/01/08 05:36:15;;;;;;;7.77;5.07;;;;;;;;;;6156579;23;20016;-85
2024/01/08 05:38:41;;;;;;;8.07;5.20;;;;;;;;;;6178590;23;20107;-85
2024/01/08 05:41:07;;;;;;;7.63;5.70;;;;;;;;;;6180904;23;20027;-85
2024/01/08 05:43:39;;;;;;;6.57;4.97;;;;;;;;;;6152648;23;20086;-85
2024/01/08 05:46:09;;;;;;;7.50;6.03;;;;;;;;;;6181943;23;20016;-85
2024/01/08 05:48:38;;;;;;;7.80;5.63;;;;;;;;;;6154685;23;20020;-85
2024/01/08 05:51:04;;;;;;;8.73;5.10;;;;;;;;;;6154993;23;20016;-85
2024/01/08 05:53:31;;;;;;;10.30;6.67;;;;;;;;;;6152614;23;20019;-85
2024/01/08 05:55:57;;;;;;;7.77;5.57;;;;;;;;;;6180204;23;20026;-85
2024/01/08 05:58:23;;;;;;;8.00;5.40;;;;;;;;;;6161116;23;20094;-85
2024/01/08 06:00:49;;;;;;;7.73;5.43;;;;;;;;;;6154144;23;20044;-85
2024/01/08 06:03:15;;;;;;;8.70;5.73;;;;;;;;;;6156475;23;20057;-85
2024/01/08 06:05:41;;;;;;;10.43;5.90;;;;;;;;;;6153408;23;20094;-85
2024/01/08 06:08:08;;;;;;;9.93;5.47;;;;;;;;;;6156111;23;20478;-85
2024/01/08 06:10:34;;;;;;;7.60;5.80;;;;;;;;;;6152605;23;20190;-85
2024/01/08 06:13:00;;;;;;;7.63;5.80;;;;;;;;;;6157904;23;20051;-85
2024/01/08 06:15:26;;;;;;;9.13;6.13;;;;;;;;;;6156920;23;20023;-85
2024/01/08 06:17:52;;;;;;;11.67;6.23;;;;;;;;;;6155110;23;20012;-85
2024/01/08 06:20:18;;;;;;;6.73;5.17;;;;;;;;;;6179209;23;20020;-85
2024/01/08 06:22:45;;;;;;;10.83;5.70;;;;;;;;;;6176378;23;20016;-85
2024/01/08 06:25:11;;;;;;;10.47;5.50;;;;;;;;;;6180139;23;20016;-85
2024/01/08 06:27:37;;;;;;;9.20;5.67;;;;;;;;;;6153549;23;20027;-85
2024/01/08 06:30:03;;;;;;;9.63;5.80;;;;;;;;;;6178741;23;20020;-85
2024/01/08 06:32:29;;;;;;;10.70;6.13;;;;;;;;;;6177076;23;20503;-85
2024/01/08 06:34:56;;;;;;;8.37;5.57;;;;;;;;;;6156524;23;20020;-85
2024/01/08 06:37:22;;;;;;;7.63;5.53;;;;;;;;;;6178130;23;20315;-85
2024/01/08 06:39:48;;;;;;;9.73;5.70;;;;;;;;;;6175799;23;20807;-85
2024/01/08 06:42:14;;;;;;;7.13;5.37;;;;;;;;;;6180925;23;20100;-85
2024/01/08 06:44:40;;;;;;;9.07;5.70;;;;;;;;;;6179028;23;20027;-85
2024/01/08 06:47:06;;;;;;;7.63;5.27;;;;;;;;;;6156916;23;20039;-85
2024/01/08 06:49:32;;;;;;;8.27;5.30;;;;;;;;;;6156103;23;20016;-85
2024/01/08 06:51:59;;;;;;;8.10;5.23;;;;;;;;;;6180967;23;20341;-86
2024/01/08 06:54:25;;;;;;;8.20;5.07;;;;;;;;;;6204964;23;20020;-86
2024/01/08 06:56:53;;;;;;;8.77;5.90;;;;;;;;;;6153442;23;20030;-85
2024/01/08 06:59:21;;;;;;;8.07;5.63;;;;;;;;;;6183380;23;20877;-85
2024/01/08 07:01:51;;;;;;;7.60;5.27;;;;;;;;;;6156672;23;21111;-85
2024/01/08 07:04:18;;;;;;;7.40;5.07;;;;;;;;;;6156942;23;20020;-84
2024/01/08 07:06:46;;;;;;;8.27;5.33;;;;;;;;;;6178982;23;20411;-84
2024/01/08 07:09:13;;;;;;;10.67;5.43;;;;;;;;;;6155992;23;20457;-85
2024/01/08 07:15:01;;;;;;;7.93;5.27;;;;;;;;;;6180733;23;20082;-85
2024/01/08 07:17:28;;;;;;;9.00;5.23;;;;;;;;;;6096057;23;20020;-85
2024/01/08 07:19:56;;;;;;;9.23;5.50;;;;;;;;;;6096317;23;20021;-86
2024/01/08 07:22:23;;;;;;;6.88;4.95;;;;;;;;;;6098664;23;20098;-86
2024/01/08 07:24:59;;;;;;;8.40;4.63;;;;;;;;;;6120383;23;20017;-87
2024/01/08 07:27:26;;;;;;;10.10;5.20;;;;;;;;;;6099069;23;20083;-87
2024/01/08 07:30:01;;;;;;;8.93;5.40;;;;;;;;;;6099612;23;20079;-87
2024/01/08 07:32:31;;;;;;;6.30;4.80;;;;;;;;;;6096757;23;20025;-87
2024/01/08 07:35:10;;;;;;;7.93;4.63;;;;;;;;;;6100647;23;20020;-87
2024/01/08 07:37:40;;;;;;;6.83;4.37;;;;;;;;;;6125044;23;20111;-86
2024/01/08 07:40:10;;;;;;;7.00;5.13;;;;;;;;;;6100916;23;20518;-87
2024/01/08 07:42:39;;;;;;;7.60;4.93;;;;;;;;;;6122288;23;20756;-87
2024/01/08 07:45:10;;;;;;;9.67;5.33;;;;;;;;;;6102019;23;20503;-87
2024/01/08 07:47:39;;;;;;;6.97;4.57;;;;;;;;;;6122078;23;20013;-87
2024/01/08 07:50:08;;;;;;;7.80;4.93;;;;;;;;;;6100550;23;20027;-87
2024/01/08 07:52:36;;;;;;;6.13;4.43;;;;;;;;;;6137121;23;20080;-87
2024/01/08 07:55:03;;;;;;;7.00;4.82;;;;;;;;;;6155054;23;20032;-87
2024/01/08 07:57:30;;;;;;;8.80;4.80;;;;;;;;;;6152046;23;20023;-87
2024/01/08 07:59:57;;;;;;;6.40;4.05;;;;;;;;;;6156250;23;20348;-87
2024/01/08 08:02:25;;;;;;;7.18;4.75;;;;;;;;;;6155588;23;20016;-87
2024/01/08 08:04:53;;;;;;;6.40;4.00;;;;;;;;;;6153782;23;20035;-86
2024/01/08 08:07:21;;;;;;;8.27;3.95;;;;;;;;;;6155959;23;20017;-87
2024/01/08 08:09:48;;;;;;;8.20;4.00;;;;;;;;;;6153184;23;20127;-87
2024/01/08 08:12:15;;;;;;;5.70;4.05;;;;;;;;;;6154755;23;20099;-87
2024/01/08 08:14:43;;;;;;;5.88;3.95;;;;;;;;;;6152907;23;20016;-86
2024/01/08 08:17:10;;;;;;;5.20;3.90;;;;;;;;;;6155141;23;20536;-86
2024/01/08 08:19:38;;;;;;;6.03;4.25;;;;;;;;;;6153169;23;20023;-87
2024/01/08 08:22:07;;;;;;;6.47;4.37;;;;;;;;;;6155078;23;20024;-87
2024/01/08 08:24:34;;;;;;;6.43;3.60;;;;;;;;;;6153392;23;20083;-87
2024/01/08 08:27:01;;;;;;;7.27;4.03;;;;;;;;;;6180794;23;20020;-87
2024/01/08 08:29:29;;;;;;;5.75;4.20;;;;;;;;;;6153097;23;20012;-87
2024/01/08 08:32:00;;;;;;;5.40;4.13;;;;;;;;;;6155399;23;20464;-87
2024/01/08 08:34:28;;;;;;;6.57;3.90;;;;;;;;;;6154921;23;20024;-87
2024/01/08 08:36:55;;;;;;;5.20;4.23;;;;;;;;;;6154660;23;20017;-87
2024/01/08 08:39:23;;;;;;;7.38;4.15;;;;;;;;;;6155632;23;20362;-86
2024/01/08 08:41:50;;;;;;;8.07;4.43;;;;;;;;;;6153623;23;20023;-87
2024/01/08 08:44:17;;;;;;;8.13;4.05;;;;;;;;;;6155088;23;20020;-87
2024/01/08 08:46:44;;;;;;;9.40;3.95;;;;;;;;;;6152611;23;20012;-87
2024/01/08 08:49:13;;;;;;;5.87;4.03;;;;;;;;;;6154812;23;20071;-87
2024/01/08 08:51:41;;;;;;;5.87;4.03;;;;;;;;;;6153169;23;20024;-87
2024/01/08 08:54:08;;;;;;;5.73;4.00;;;;;;;;;;6155687;23;20017;-87
2024/01/08 08:56:36;;;;;;;7.13;3.83;;;;;;;;;;6131202;23;20028;-87
2024/01/08 08:59:03;;;;;;;5.38;3.72;;;;;;;;;;6155643;23;20023;-87
2024/01/08 09:01:31;;;;;;;5.03;3.35;;;;;;;;;;6153623;23;20013;-87
2024/01/08 09:03:58;;;;;;;6.13;4.20;;;;;;;;;;6154818;23;20028;-87
2024/01/08 09:06:25;;;;;;;7.53;3.80;;;;;;;;;;6154747;23;20024;-87
2024/01/08 09:08:51;;;;;;;7.53;4.00;;;;;;;;;;6152255;23;20345;-87
2024/01/08 09:11:18;;;;;;;10.47;4.23;;;;;;;;;;6153721;23;20021;-87
2024/01/08 09:13:44;;;;;;;7.43;4.07;;;;;;;;;;6151668;23;20063;-87
2024/01/08 09:16:10;;;;;;;8.00;4.70;;;;;;;;;;6153639;23;20024;-87
2024/01/08 09:18:36;;;;;;;6.70;4.00;;;;;;;;;;6152136;23;20016;-87
2024/01/08 09:21:02;;;;;;;5.65;4.32;;;;;;;;;;6154081;23;20084;-87
2024/01/08 09:23:28;;;;;;;6.30;3.78;;;;;;;;;;6151704;23;20013;-86
2024/01/08 09:25:54;;;;;;;5.68;3.70;;;;;;;;;;6153905;23;20123;-87
2024/01/08 09:28:20;;;;;;;6.93;4.63;;;;;;;;;;6153868;23;20027;-87
2024/01/08 09:30:47;;;;;;;5.63;3.97;;;;;;;;;;6151771;23;20483;-87
2024/01/08 09:33:13;;;;;;;6.28;3.95;;;;;;;;;;6154275;23;20008;-87
2024/01/08 09:35:40;;;;;;;7.65;4.25;;;;;;;;;;6151167;23;20012;-87
2024/01/08 09:38:07;;;;;;;5.80;3.60;;;;;;;;;;6151068;23;20023;-87
2024/01/08 09:40:35;;;;;;;5.20;3.60;;;;;;;;;;6149690;23;20020;-87
2024/01/08 09:43:06;;;;;;;7.60;4.35;;;;;;;;;;6153659;23;20120;-86
2024/01/08 09:45:33;;;;;;;7.43;4.03;;;;;;;;;;6151206;23;20028;-87
2024/01/08 09:48:01;;;;;;;4.85;3.75;;;;;;;;;;6177097;23;20023;-87
2024/01/08 09:50:28;;;;;;;6.70;4.40;;;;;;;;;;6151314;23;20020;-87
2024/01/08 09:52:56;;;;;;;5.93;3.90;;;;;;;;;;6177715;23;20876;-87
2024/01/08 09:55:26;;;;;;;6.93;3.55;;;;;;;;;;6164260;23;20028;-86
2024/01/08 09:57:53;;;;;;;5.50;3.83;;;;;;;;;;6182316;23;20027;-87
2024/01/08 10:00:21;;;;;;;5.82;3.53;;;;;;;;;;6207147;23;20024;-87
2024/01/08 10:02:53;;;;;;;5.63;3.95;;;;;;;;;;6156466;23;20016;-87
2024/01/08 10:05:21;;;;;;;6.63;3.70;;;;;;;;;;6156274;23;20735;-87
2024/01/08 10:07:49;;;;;;;6.10;4.03;;;;;;;;;;6205493;23;20086;-87
2024/01/08 10:10:16;;;;;;;3.88;2.78;;;;;;;;;;6158172;23;20103;-87
2024/01/08 10:12:47;;;;;;;5.13;4.10;;;;;;;;;;6155890;23;20020;-87
2024/01/08 10:15:18;;;;;;;5.38;3.80;;;;;;;;;;6158385;23;20016;-87
2024/01/08 10:17:49;;;;;;;4.75;3.63;;;;;;;;;;6183488;23;20028;-87
2024/01/08 10:20:17;;;;;;;4.95;3.83;;;;;;;;;;6183914;23;20382;-86
2024/01/08 10:22:45;;;;;;;7.43;3.90;;;;;;;;;;6182765;23;20012;-87
2024/01/08 10:25:12;;;;;;;4.30;3.47;;;;;;;;;;6184375;23;20388;-87
2024/01/08 10:27:39;;;;;;;5.25;3.45;;;;;;;;;;6206105;23;20482;-87
2024/01/08 10:30:07;;;;;;;5.80;3.20;;;;;;;;;;6184966;23;20020;-87
2024/01/08 10:32:34;;;;;;;4.25;3.20;;;;;;;;;;6181485;23;20391;-87
2024/01/08 10:35:04;;;;;;;4.30;3.13;;;;;;;;;;6184045;23;20031;-87
2024/01/08 10:37:31;;;;;;;4.55;3.75;;;;;;;;;;6157915;23;20020;-87
2024/01/08 10:39:59;;;;;;;5.95;3.05;;;;;;;;;;6185330;23;20512;-87
2024/01/08 10:42:26;;;;;;;4.93;3.33;;;;;;;;;;6158262;23;20448;-87
2024/01/08 10:44:54;;;;;;;4.18;3.42;;;;;;;;;;6158652;23;20043;-87
2024/01/08 10:47:23;;;;;;;5.82;3.45;;;;;;;;;;6157853;23;20035;-87
2024/01/08 10:49:51;;;;;;;4.68;3.28;;;;;;;;;;6156376;23;20110;-87
2024/01/08 10:52:30;;;;;;;5.10;3.20;;;;;;;;;;6159214;23;20015;-87
2024/01/08 10:55:01;;;;;;;4.90;3.33;;;;;;;;;;6184443;23;20333;-87
2024/01/08 10:57:34;;;;;;;3.65;2.75;;;;;;;;;;6158621;23;20020;-87
2024/01/08 11:00:01;;;;;;;4.07;3.03;;;;;;;;;;6183577;23;20016;-87
2024/01/08 11:02:28;;;;;;;5.30;3.00;;;;;;;;;;6156784;23;20014;-87
2024/01/08 11:05:03;;;;;;;37.20;20.65;;;;;;;;;;6157842;23;20012;-86
2024/01/08 11:07:33;;;;;;;1006.88;424.50;;;;;;;;;;6158183;23;20448;-87
2024/01/08 11:10:07;;;;;;;114.60;69.85;;;;;;;;;;6184215;23;20027;-87
2024/01/08 11:12:39;;;;;;;39.55;29.48;;;;;;;;;;6182397;23;20023;-87
2024/01/08 11:15:07;;;;;;;34.25;23.08;;;;;;;;;;6183851;23;20335;-87
2024/01/08 11:17:34;;;;;;;17.73;14.83;;;;;;;;;;6159460;23;20047;-87
2024/01/08 11:20:06;;;;;;;10.33;8.27;;;;;;;;;;6160869;23;20027;-87
2024/01/08 11:22:34;;;;;;;11.30;10.20;;;;;;;;;;6158199;23;20016;-87
2024/01/08 11:25:03;;;;;;;14.70;13.05;;;;;;;;;;6157904;23;20078;-86
2024/01/08 11:27:31;;;;;;;29.20;26.13;;;;;;;;;;6204255;23;20098;-87
2024/01/08 11:30:01;;;;;;;8.48;7.65;;;;;;;;;;6158973;23;20635;-86
2024/01/08 11:32:33;;;;;;;4.63;4.05;;;;;;;;;;6158357;23;20102;-87
2024/01/08 11:35:03;;;;;;;136.52;63.75;;;;;;;;;;6183014;23;20023;-87
2024/01/08 11:37:39;;;;;;;179.18;71.97;;;;;;;;;;6179530;23;20070;-87
2024/01/08 11:43:37;;;;;;;86.53;32.30;;;;;;;;;;6056853;23;20554;-87
2024/01/08 11:46:49;;;;;;;;;;;;;;;;;;;;;
2024/01/08 11:59:46;;;;;;;93.63;39.28;;;;;;;;;;5997963;23;20082;-88
2024/01/08 13:50:32;;;;;;;5.10;3.30;;;;;;;;;;6237888;22;20472;-85
2024/01/08 15:00:41;;;;;;;110.65;58.72;;;;;;;;;;6242760;22;20081;-90
2024/01/08 18:57:59;;;;;;;10.63;8.60;;;;;;;;;;6270889;22;20089;-85
2024/01/08 19:00:49;;;;;;;12.33;8.63;;;;;;;;;;6215673;22;20023;-85
2024/01/08 19:06:59;;;;;;;9.03;5.97;;;;;;;;;;6254277;22;20023;-85
2024/01/08 19:09:51;;;;;;;9.53;7.37;;;;;;;;;;6235081;22;20019;-85
2024/01/08 19:12:53;;;;;;;;;;;;;;;;;;;;;
2024/01/08 19:15:42;;;;;;;7.73;4.47;;;;;;;;;;6293274;22;20339;-85
2024/01/08 19:18:20;;;;;;;7.37;4.57;;;;;;;;;;6242112;22;20019;-85
2024/01/08 19:21:08;;;;;;;6.70;4.47;;;;;;;;;;6173629;23;20060;-85
2024/01/08 19:24:05;;;;;;;;;;;;;;;;;;;;;
2024/01/08 19:30:33;;;;;;;8.97;4.87;;;;;;;;;;6152653;23;20453;-85
2024/01/08 19:33:21;;;;;;;;;;;;;;;;;;;;;
2024/01/08 19:36:20;;;;;;;;;;;;;;;;;;;;;
2024/01/08 19:39:28;;;;;;;;;;;;;;;;;;;;;
2024/01/08 19:42:13;;;;;;;6.50;4.40;;;;;;;;;;6211018;23;20155;-85
2024/01/08 19:45:05;;;;;;;19.90;14.13;;;;;;;;;;6169860;23;20027;-85
2024/01/08 19:47:53;;;;;;;105.17;51.33;;;;;;;;;;6127166;23;20064;-85
2024/01/08 19:54:07;;;;;;;189.57;94.70;;;;;;;;;;6267513;22;20080;-85
2024/01/08 19:57:11;;;;;;;192.80;82.28;;;;;;;;;;6276592;22;20051;-85
2024/01/08 20:02:59;;;;;;;174.23;81.70;;;;;;;;;;6259056;22;20051;-85
2024/01/08 20:05:31;;;;;;;166.20;76.03;;;;;;;;;;6232418;22;20035;-85
2024/01/08 20:08:08;;;;;;;73.47;37.40;;;;;;;;;;6212011;22;20047;-85
2024/01/08 22:22:06;;;;;;;10.17;5.30;;;;;;;;;;5891948;24;20037;-85
2024/01/08 23:00:12;;;;;;;8.23;4.53;;;;;;;;;;5795105;24;20092;-85
2024/01/08 23:02:38;;;;;;;8.57;4.47;;;;;;;;;;5912544;23;20027;-85
2024/01/08 23:05:04;;;;;;;7.43;4.33;;;;;;;;;;6124380;23;20025;-85
2024/01/08 23:07:30;;;;;;;9.57;5.00;;;;;;;;;;6195896;23;20092;-85
2024/01/08 23:09:56;;;;;;;7.03;4.50;;;;;;;;;;6150582;23;20055;-85
2024/01/08 23:12:22;;;;;;;6.40;4.43;;;;;;;;;;6124078;23;20407;-85
2024/01/08 23:14:48;;;;;;;7.50;4.50;;;;;;;;;;6120294;23;20012;-85
2024/01/08 23:17:15;;;;;;;8.50;4.67;;;;;;;;;;6193003;23;20363;-85
2024/01/08 23:19:41;;;;;;;6.30;4.30;;;;;;;;;;6144213;23;20016;-85
2024/01/08 23:22:07;;;;;;;10.87;4.90;;;;;;;;;;6145151;23;20035;-85
2024/01/08 23:24:36;;;;;;;6.90;4.23;;;;;;;;;;6146395;23;20465;-85
2024/01/08 23:27:03;;;;;;;7.33;4.53;;;;;;;;;;6174649;23;20059;-85
2024/01/08 23:29:29;;;;;;;7.10;4.03;;;;;;;;;;6171076;23;20589;-85
2024/01/08 23:31:55;;;;;;;5.23;3.90;;;;;;;;;;6151090;23;20028;-85
2024/01/08 23:34:21;;;;;;;6.47;4.30;;;;;;;;;;6150293;23;20020;-85
2024/01/08 23:36:47;;;;;;;5.77;4.30;;;;;;;;;;6145027;23;20016;-85
2024/01/08 23:39:13;;;;;;;5.63;3.97;;;;;;;;;;6199130;23;20060;-85
2024/01/08 23:41:39;;;;;;;6.00;4.30;;;;;;;;;;6169746;23;20055;-85
2024/01/08 23:44:05;;;;;;;5.67;3.70;;;;;;;;;;6202574;23;20417;-85
2024/01/08 23:46:31;;;;;;;7.40;4.43;;;;;;;;;;6197166;23;20013;-86
2024/01/08 23:48:57;;;;;;;7.53;4.47;;;;;;;;;;6175385;23;20086;-85
2024/01/08 23:51:23;;;;;;;7.93;4.03;;;;;;;;;;6201498;23;20020;-85
2024/01/08 23:53:49;;;;;;;5.73;4.23;;;;;;;;;;6176182;23;20094;-85
2024/01/08 23:56:15;;;;;;;5.87;4.23;;;;;;;;;;6175208;23;20014;-85
2024/01/08 23:58:41;;;;;;;6.67;4.00;;;;;;;;;;6200537;23;20591;-85
